createdAt,value
2023-03-02T00:00:41.662Z,12.40
2023-03-02T00:03:19.711Z,12.40
2023-03-02T00:05:55.653Z,12.50
2023-03-02T00:08:32.123Z,12.50
2023-03-02T00:11:08.759Z,12.50
2023-03-02T00:13:45.667Z,12.40
2023-03-02T00:16:24.388Z,12.50
2023-03-02T00:19:00.775Z,12.60
2023-03-02T00:21:36.630Z,12.50
2023-03-02T00:24:12.892Z,12.50
2023-03-02T00:26:48.995Z,12.50
2023-03-02T00:29:25.772Z,12.60
2023-03-02T00:32:08.168Z,12.60
2023-03-02T00:34:45.907Z,12.80
2023-03-02T00:37:23.991Z,12.80
2023-03-02T00:40:00.281Z,12.70
2023-03-02T00:42:36.247Z,12.70
2023-03-02T00:45:13.183Z,12.70
2023-03-02T00:47:51.916Z,12.60
2023-03-02T00:50:28.174Z,12.50
2023-03-02T00:53:04.590Z,12.40
2023-03-02T00:55:41.363Z,12.50
2023-03-02T00:58:22.232Z,12.40
2023-03-02T01:00:58.672Z,12.50
2023-03-02T01:03:41.852Z,12.50
2023-03-02T01:06:24.268Z,12.60
2023-03-02T01:09:02.183Z,12.60
2023-03-02T01:11:40.243Z,12.40
2023-03-02T01:14:20.042Z,12.50
2023-03-02T01:16:56.947Z,12.50
2023-03-02T01:19:39.450Z,12.50
2023-03-02T01:22:16.083Z,12.40
2023-03-02T01:24:54.760Z,12.40
2023-03-02T01:27:31.468Z,12.40
2023-03-02T01:30:07.810Z,12.50
2023-03-02T01:32:44.529Z,12.40
2023-03-02T01:35:23.734Z,12.30
2023-03-02T01:38:00.923Z,12.30
2023-03-02T01:40:38.983Z,12.30
2023-03-02T01:43:20.894Z,12.30
2023-03-02T01:45:59.859Z,12.30
2023-03-02T01:48:55.480Z,12.40
2023-03-02T01:51:50.736Z,12.40
2023-03-02T01:54:33.277Z,12.70
2023-03-02T01:57:11.603Z,12.70
2023-03-02T01:59:48.575Z,12.70
2023-03-02T02:02:27.089Z,12.60
2023-03-02T02:05:04.055Z,12.50
2023-03-02T02:07:47.212Z,12.50
2023-03-02T02:10:26.985Z,12.80
2023-03-02T02:13:03.345Z,12.60
2023-03-02T02:15:41.419Z,12.80
2023-03-02T02:18:20.051Z,13.00
2023-03-02T02:20:57.543Z,13.00
2023-03-02T02:23:45.753Z,13.00
2023-03-02T02:26:31.496Z,12.90
2023-03-02T02:29:13.608Z,13.00
2023-03-02T02:31:53.281Z,12.90
2023-03-02T02:34:35.941Z,13.10
2023-03-02T02:37:16.460Z,13.20
2023-03-02T02:39:59.763Z,13.30
2023-03-02T02:42:41.796Z,13.50
2023-03-02T02:45:29.048Z,13.40
2023-03-02T02:48:06.601Z,13.50
2023-03-02T02:50:43.943Z,13.90
2023-03-02T02:53:26.558Z,14.00
2023-03-02T02:56:09.045Z,14.00
2023-03-02T02:58:52.843Z,14.10
2023-03-02T03:01:30.773Z,13.90
2023-03-02T03:04:10.683Z,13.80
2023-03-02T03:06:59.797Z,13.70
2023-03-02T03:09:37.542Z,14.20
2023-03-02T03:12:24.121Z,14.30
2023-03-02T03:15:04.670Z,14.30
2023-03-02T03:17:42.633Z,14.20
2023-03-02T03:20:21.350Z,14.30
2023-03-02T03:23:00.854Z,14.40
2023-03-02T03:25:41.870Z,14.20
2023-03-02T03:28:19.830Z,14.20
2023-03-02T03:31:05.048Z,14.40
2023-03-02T03:33:42.789Z,14.50
2023-03-02T03:36:26.497Z,14.50
2023-03-02T03:39:05.046Z,14.60
2023-03-02T03:41:41.817Z,14.50
2023-03-02T03:44:19.572Z,14.60
2023-03-02T03:46:59.120Z,14.70
2023-03-02T03:49:38.375Z,14.70
2023-03-02T03:52:15.958Z,14.60
2023-03-02T03:54:52.863Z,14.60
2023-03-02T03:57:29.069Z,14.60
2023-03-02T04:00:09.757Z,14.30
2023-03-02T04:02:52.003Z,14.40
2023-03-02T04:05:31.448Z,14.40
2023-03-02T04:08:12.853Z,14.40
2023-03-02T04:10:51.545Z,14.70
2023-03-02T04:13:29.884Z,14.70
2023-03-02T04:16:13.514Z,14.90
2023-03-02T04:18:58.675Z,15.10
2023-03-02T04:21:40.706Z,15.00
2023-03-02T04:24:24.318Z,14.70
2023-03-02T04:27:05.539Z,14.80
2023-03-02T04:29:48.639Z,14.70
2023-03-02T04:32:26.665Z,14.90
2023-03-02T04:35:09.971Z,14.60
2023-03-02T04:37:48.980Z,14.70
2023-03-02T04:40:26.448Z,14.60
2023-03-02T04:43:07.661Z,14.70
2023-03-02T04:45:49.624Z,14.90
2023-03-02T04:48:27.712Z,14.90
2023-03-02T04:51:09.940Z,15.10
2023-03-02T04:53:46.311Z,15.20
2023-03-02T04:56:24.769Z,15.30
2023-03-02T04:59:09.004Z,15.30
2023-03-02T05:01:45.963Z,15.00
2023-03-02T05:04:24.257Z,14.90
2023-03-02T05:07:04.029Z,15.00
2023-03-02T05:09:41.204Z,14.90
2023-03-02T05:12:23.523Z,15.00
2023-03-02T05:15:05.578Z,14.80
2023-03-02T05:17:42.774Z,14.70
2023-03-02T05:20:20.451Z,14.90
2023-03-02T05:23:11.010Z,15.10
2023-03-02T05:25:47.466Z,15.30
2023-03-02T05:28:30.869Z,15.10
2023-03-02T05:31:14.112Z,15.10
2023-03-02T05:33:52.531Z,15.10
2023-03-02T05:36:30.218Z,15.30
2023-03-02T05:39:09.261Z,15.30
2023-03-02T05:41:57.091Z,15.40
2023-03-02T05:44:36.330Z,15.30
2023-03-02T05:47:14.600Z,15.20
2023-03-02T05:49:51.277Z,15.20
2023-03-02T05:52:39.743Z,15.40
2023-03-02T05:55:20.002Z,15.20
2023-03-02T05:58:01.160Z,15.20
2023-03-02T06:00:38.957Z,15.20
2023-03-02T06:03:23.308Z,15.30
2023-03-02T06:06:02.056Z,15.60
2023-03-02T06:08:43.230Z,15.70
2023-03-02T06:11:22.304Z,15.60
2023-03-02T06:14:02.329Z,15.40
2023-03-02T06:16:41.612Z,15.40
2023-03-02T06:19:19.517Z,15.40
2023-03-02T06:22:02.183Z,15.50
2023-03-02T06:24:40.061Z,15.60
2023-03-02T06:27:20.363Z,15.50
2023-03-02T06:29:57.641Z,15.40
2023-03-02T06:32:40.660Z,15.50
2023-03-02T06:35:18.885Z,15.40
2023-03-02T06:37:55.734Z,15.30
2023-03-02T06:40:35.987Z,15.20
2023-03-02T06:43:20.643Z,15.50
2023-03-02T06:46:02.133Z,15.40
2023-03-02T06:48:41.566Z,15.40
2023-03-02T06:51:18.354Z,15.30
2023-03-02T06:53:59.969Z,15.30
2023-03-02T06:56:36.923Z,15.30
2023-03-02T06:59:16.784Z,15.40
2023-03-02T07:01:53.393Z,15.30
2023-03-02T07:04:29.848Z,15.50
2023-03-02T07:07:11.458Z,15.60
2023-03-02T07:09:53.019Z,15.10
2023-03-02T07:12:29.544Z,15.00
2023-03-02T07:15:12.511Z,14.90
2023-03-02T07:17:50.994Z,14.70
2023-03-02T07:20:32.312Z,14.80
2023-03-02T07:23:13.487Z,14.80
2023-03-02T07:25:52.160Z,14.70
2023-03-02T07:28:28.986Z,14.50
2023-03-02T07:31:08.120Z,14.70
2023-03-02T07:33:51.654Z,14.90
2023-03-02T07:36:29.079Z,15.10
2023-03-02T07:39:08.810Z,15.00
2023-03-02T07:41:45.647Z,15.00
2023-03-02T07:44:23.127Z,14.90
2023-03-02T07:47:02.130Z,14.90
2023-03-02T07:49:42.895Z,14.80
2023-03-02T07:52:20.048Z,14.70
2023-03-02T07:54:58.628Z,14.70
2023-03-02T07:57:36.892Z,14.40
2023-03-02T08:00:14.635Z,14.30
2023-03-02T08:02:55.558Z,14.40
2023-03-02T08:05:32.237Z,14.30
2023-03-02T08:08:10.506Z,14.20
2023-03-02T08:10:46.721Z,14.10
2023-03-02T08:13:28.690Z,14.30
2023-03-02T08:16:11.073Z,14.20
2023-03-02T08:18:55.942Z,14.10
2023-03-02T08:21:36.425Z,14.30
2023-03-02T08:24:23.714Z,14.10
2023-03-02T08:27:00.850Z,14.30
2023-03-02T08:29:41.440Z,14.30
2023-03-02T08:32:18.257Z,14.20
2023-03-02T08:34:58.451Z,14.20
2023-03-02T08:37:35.250Z,14.10
2023-03-02T08:40:12.724Z,14.10
2023-03-02T08:42:51.578Z,14.10
2023-03-02T08:45:30.266Z,14.10
2023-03-02T08:48:06.871Z,14.20
2023-03-02T08:50:51.802Z,14.10
2023-03-02T08:53:30.241Z,14.00
2023-03-02T08:56:09.130Z,14.00
2023-03-02T08:58:48.822Z,14.10
2023-03-02T09:01:31.578Z,14.30
2023-03-02T09:04:16.294Z,14.10
2023-03-02T09:06:57.550Z,14.20
2023-03-02T09:09:36.800Z,14.10
2023-03-02T09:12:13.582Z,14.10
2023-03-02T09:14:50.333Z,14.20
2023-03-02T09:17:26.560Z,14.20
2023-03-02T09:20:02.659Z,14.30
2023-03-02T09:22:41.959Z,14.20
2023-03-02T09:25:24.489Z,14.20
2023-03-02T09:28:07.003Z,14.20
2023-03-02T09:30:44.648Z,14.30
2023-03-02T09:33:24.371Z,14.30
2023-03-02T09:36:04.625Z,14.30
2023-03-02T09:38:45.603Z,14.40
2023-03-02T09:41:42.016Z,14.30
2023-03-02T09:44:44.689Z,14.30
2023-03-02T09:47:35.506Z,14.30
2023-03-02T09:50:32.464Z,14.30
2023-03-02T09:53:34.121Z,14.40
2023-03-02T09:56:21.248Z,14.30
2023-03-02T09:59:08.940Z,14.30
2023-03-02T10:01:49.360Z,14.30
2023-03-02T10:04:32.866Z,14.30
2023-03-02T10:07:23.291Z,14.40
2023-03-02T10:10:02.406Z,14.30
2023-03-02T10:13:05.473Z,14.40
2023-03-02T10:15:49.617Z,14.30
2023-03-02T10:18:30.454Z,14.20
2023-03-02T10:21:11.607Z,14.20
2023-03-02T10:23:54.223Z,14.20
2023-03-02T10:26:43.617Z,14.20
2023-03-02T10:29:52.111Z,14.00
2023-03-02T10:32:34.367Z,13.90
2023-03-02T10:35:23.385Z,13.80
2023-03-02T10:38:18.545Z,13.90
2023-03-02T10:41:03.010Z,13.80
2023-03-02T10:43:45.010Z,13.80
2023-03-02T10:46:28.815Z,13.80
2023-03-02T10:49:06.611Z,13.60
2023-03-02T10:51:53.103Z,13.60
2023-03-02T10:54:37.113Z,13.50
2023-03-02T10:57:37.127Z,13.60
2023-03-02T11:00:28.255Z,13.70
2023-03-02T11:03:11.639Z,13.60
2023-03-02T11:05:51.770Z,13.50
2023-03-02T11:08:34.782Z,13.50
2023-03-02T11:11:26.155Z,13.50
2023-03-02T11:14:14.026Z,13.50
2023-03-02T11:17:09.338Z,13.50
2023-03-02T11:19:53.014Z,13.50
2023-03-02T11:22:42.636Z,13.60
2023-03-02T11:25:31.727Z,13.60
2023-03-02T11:28:16.509Z,13.50
2023-03-02T11:30:58.824Z,13.40
2023-03-02T11:33:44.041Z,13.50
2023-03-02T11:36:30.229Z,13.40
2023-03-02T11:39:10.793Z,13.50
2023-03-02T11:41:54.290Z,13.50
2023-03-02T11:44:31.630Z,13.50
2023-03-02T11:47:11.534Z,13.40
2023-03-02T11:49:55.099Z,13.40
2023-03-02T11:52:39.952Z,13.50
2023-03-02T11:55:24.816Z,13.40
2023-03-02T11:58:04.333Z,13.40
2023-03-02T12:00:43.507Z,13.40
2023-03-02T12:03:46.633Z,13.40
2023-03-02T12:06:43.160Z,13.40
2023-03-02T12:09:53.270Z,13.50
2023-03-02T12:12:53.202Z,13.50
2023-03-02T12:15:48.616Z,13.50
2023-03-02T12:18:55.298Z,13.60
2023-03-02T12:21:32.698Z,13.60
2023-03-02T12:24:23.005Z,13.60
2023-03-02T12:27:16.338Z,13.60
2023-03-02T12:30:03.083Z,13.60
2023-03-02T12:32:42.195Z,13.60
2023-03-02T12:35:25.719Z,13.60
2023-03-02T12:38:05.889Z,13.60
2023-03-02T12:41:03.854Z,13.60
2023-03-02T12:43:42.538Z,13.40
2023-03-02T12:46:37.366Z,13.50
2023-03-02T12:49:50.326Z,13.50
2023-03-02T12:52:35.431Z,13.30
2023-03-02T12:55:22.206Z,13.40
2023-03-02T12:58:10.930Z,13.50
2023-03-02T13:00:54.779Z,13.50
2023-03-02T13:03:39.676Z,13.50
2023-03-02T13:06:25.268Z,13.50
2023-03-02T13:09:05.123Z,13.50
2023-03-02T13:11:44.520Z,13.50
2023-03-02T13:14:32.528Z,13.50
2023-03-02T13:17:13.897Z,13.50
2023-03-02T13:19:54.906Z,13.40
2023-03-02T13:22:47.083Z,13.60
2023-03-02T13:25:32.894Z,13.60
2023-03-02T13:28:14.649Z,13.70
2023-03-02T13:30:57.136Z,13.70
2023-03-02T13:33:39.276Z,13.60
2023-03-02T13:36:26.031Z,13.50
2023-03-02T13:39:20.879Z,13.50
2023-03-02T13:42:05.570Z,13.40
2023-03-02T13:44:45.171Z,13.30
2023-03-02T13:47:30.989Z,13.30
2023-03-02T13:50:19.912Z,13.30
2023-03-02T13:53:08.936Z,13.30
2023-03-02T13:55:47.709Z,13.30
2023-03-02T13:58:27.815Z,13.20
2023-03-02T14:01:11.956Z,13.20
2023-03-02T14:03:54.175Z,13.10
2023-03-02T14:06:34.002Z,12.90
2023-03-02T14:09:14.917Z,12.80
2023-03-02T14:11:58.206Z,12.70
2023-03-02T14:14:50.709Z,12.80
2023-03-02T14:17:32.864Z,12.80
2023-03-02T14:20:10.046Z,12.90
2023-03-02T14:22:48.689Z,13.00
2023-03-02T14:25:28.623Z,12.90
2023-03-02T14:28:07.962Z,12.90
2023-03-02T14:30:47.520Z,12.90
2023-03-02T14:33:27.906Z,12.90
2023-03-02T14:36:09.390Z,12.80
2023-03-02T14:38:46.496Z,12.80
2023-03-02T14:41:53.476Z,12.60
2023-03-02T14:44:35.270Z,12.60
2023-03-02T14:47:17.977Z,12.60
2023-03-02T14:49:56.360Z,12.50
2023-03-02T14:52:46.064Z,12.60
2023-03-02T14:55:27.238Z,12.80
2023-03-02T14:58:12.212Z,13.00
2023-03-02T15:00:50.448Z,12.90
2023-03-02T15:03:29.236Z,13.00
2023-03-02T15:06:07.559Z,13.00
2023-03-02T15:08:48.530Z,13.10
2023-03-02T15:11:29.826Z,13.10
2023-03-02T15:14:18.907Z,13.00
2023-03-02T15:16:56.915Z,12.90
2023-03-02T15:19:33.819Z,12.90
2023-03-02T15:22:17.449Z,13.00
2023-03-02T15:24:58.616Z,12.90
2023-03-02T15:27:35.343Z,12.90
2023-03-02T15:30:19.608Z,12.80
2023-03-02T15:33:02.922Z,12.80
2023-03-02T15:35:47.374Z,12.70
2023-03-02T15:38:27.124Z,12.80
2023-03-02T15:41:03.755Z,12.90
2023-03-02T15:43:40.892Z,12.90
2023-03-02T15:46:21.489Z,12.90
2023-03-02T15:48:59.884Z,12.90
2023-03-02T15:51:37.936Z,12.70
2023-03-02T15:54:17.329Z,12.80
2023-03-02T15:56:56.338Z,12.90
2023-03-02T15:59:37.203Z,12.90
2023-03-02T16:02:17.350Z,12.80
2023-03-02T16:04:54.480Z,12.80
2023-03-02T16:07:33.001Z,12.70
2023-03-02T16:10:14.943Z,12.70
2023-03-02T16:12:52.675Z,12.70
2023-03-02T16:15:29.216Z,12.70
2023-03-02T16:18:11.551Z,12.70
2023-03-02T16:20:57.093Z,12.60
2023-03-02T16:23:37.458Z,12.60
2023-03-02T16:26:22.396Z,12.60
2023-03-02T16:28:59.194Z,12.70
2023-03-02T16:31:38.968Z,12.60
2023-03-02T16:34:23.026Z,12.70
2023-03-02T16:37:00.629Z,12.80
2023-03-02T16:39:38.406Z,12.80
2023-03-02T16:42:16.227Z,12.80
2023-03-02T16:44:56.478Z,12.80
2023-03-02T16:47:33.948Z,12.90
2023-03-02T16:50:13.775Z,12.90
2023-03-02T16:52:53.315Z,12.90
2023-03-02T16:55:29.704Z,12.90
2023-03-02T16:58:08.500Z,12.80
2023-03-02T17:00:48.408Z,12.90
2023-03-02T17:03:25.381Z,12.80
2023-03-02T17:06:08.705Z,12.80
2023-03-02T17:08:46.347Z,12.70
2023-03-02T17:11:26.862Z,12.80
2023-03-02T17:14:02.451Z,12.90
2023-03-02T17:16:44.134Z,12.90
2023-03-02T17:19:21.254Z,12.80
2023-03-02T17:22:04.365Z,12.80
2023-03-02T17:24:48.590Z,12.80
2023-03-02T17:27:26.768Z,12.80
2023-03-02T17:30:03.169Z,12.80
2023-03-02T17:32:39.763Z,12.80
2023-03-02T17:35:17.119Z,12.80
2023-03-02T17:37:58.370Z,12.80
2023-03-02T17:40:34.910Z,12.80
2023-03-02T17:43:11.178Z,12.80
2023-03-02T17:45:48.137Z,12.80
2023-03-02T17:48:27.215Z,12.80
2023-03-02T17:51:04.899Z,12.80
2023-03-02T17:53:52.693Z,12.80
2023-03-02T17:56:32.044Z,12.80
2023-03-02T17:59:09.779Z,12.80
2023-03-02T18:01:46.206Z,12.80
2023-03-02T18:04:21.985Z,12.80
2023-03-02T18:06:57.983Z,12.90
2023-03-02T18:09:37.075Z,12.80
2023-03-02T18:12:13.694Z,12.80
2023-03-02T18:14:49.402Z,12.70
2023-03-02T18:17:25.167Z,12.80
2023-03-02T18:20:01.269Z,12.80
2023-03-02T18:22:36.864Z,12.70
2023-03-02T18:25:15.795Z,12.70
2023-03-02T18:27:51.348Z,12.70
2023-03-02T18:30:27.594Z,12.60
2023-03-02T18:33:03.759Z,12.70
2023-03-02T18:35:39.750Z,12.70
2023-03-02T18:38:15.659Z,12.60
2023-03-02T18:40:54.890Z,12.70
2023-03-02T18:43:30.637Z,12.60
2023-03-02T18:46:06.658Z,12.50
2023-03-02T18:48:42.624Z,12.40
2023-03-02T18:51:18.457Z,12.50
2023-03-02T18:53:54.570Z,12.50
2023-03-02T18:56:32.975Z,12.40
2023-03-02T18:59:10.488Z,12.50
2023-03-02T19:01:46.913Z,12.50
2023-03-02T19:04:25.045Z,12.40
2023-03-02T19:07:02.395Z,12.40
2023-03-02T19:09:38.367Z,12.30
2023-03-02T19:12:16.708Z,12.30
2023-03-02T19:14:52.203Z,12.30
2023-03-02T19:17:26.931Z,12.30
2023-03-02T19:20:02.983Z,12.30
2023-03-02T19:22:38.214Z,12.30
2023-03-02T19:25:14.998Z,12.30
2023-03-02T19:27:53.092Z,12.30
2023-03-02T19:30:30.845Z,12.20
2023-03-02T19:33:08.515Z,12.20
2023-03-02T19:35:44.158Z,12.20
2023-03-02T19:38:19.920Z,12.20
2023-03-02T19:40:55.201Z,12.30
2023-03-02T19:43:32.007Z,12.30
2023-03-02T19:46:06.650Z,12.30
2023-03-02T19:48:41.070Z,12.30
2023-03-02T19:51:17.133Z,12.30
2023-03-02T19:53:52.166Z,12.40
2023-03-02T19:56:31.628Z,12.20
2023-03-02T19:59:08.839Z,12.30
2023-03-02T20:01:44.159Z,12.20
2023-03-02T20:04:19.479Z,12.20
2023-03-02T20:06:54.013Z,12.10
2023-03-02T20:09:29.479Z,12.00
2023-03-02T20:12:04.047Z,12.10
2023-03-02T20:14:41.056Z,12.10
2023-03-02T20:17:15.028Z,12.10
2023-03-02T20:19:51.284Z,12.10
2023-03-02T20:22:27.031Z,12.00
2023-03-02T20:25:02.495Z,12.00
2023-03-02T20:27:37.179Z,12.00
2023-03-02T20:30:21.678Z,12.00
2023-03-02T20:32:56.015Z,12.10
2023-03-02T20:35:31.684Z,12.10
2023-03-02T20:38:08.982Z,12.00
2023-03-02T20:40:44.079Z,12.00
2023-03-02T20:43:18.532Z,11.90
2023-03-02T20:45:54.436Z,12.00
2023-03-02T20:48:29.004Z,12.00
2023-03-02T20:51:03.321Z,12.00
2023-03-02T20:53:37.209Z,11.90
2023-03-02T20:56:13.111Z,11.80
2023-03-02T20:58:47.590Z,11.70
2023-03-02T21:01:25.121Z,11.80
2023-03-02T21:03:59.608Z,11.90
2023-03-02T21:06:34.988Z,11.70
2023-03-02T21:09:10.463Z,11.70
2023-03-02T21:11:45.524Z,11.70
2023-03-02T21:14:20.126Z,11.80
2023-03-02T21:16:55.576Z,11.70
2023-03-02T21:19:30.307Z,11.60
2023-03-02T21:22:03.709Z,11.60
2023-03-02T21:24:37.836Z,11.60
2023-03-02T21:27:12.154Z,11.70
2023-03-02T21:29:46.298Z,11.60
2023-03-02T21:32:23.682Z,11.50
2023-03-02T21:34:58.306Z,11.60
2023-03-02T21:37:33.036Z,11.60
2023-03-02T21:40:08.138Z,11.60
2023-03-02T21:42:42.553Z,11.60
2023-03-02T21:45:17.158Z,11.60
2023-03-02T21:47:54.422Z,11.60
2023-03-02T21:50:30.828Z,11.50
2023-03-02T21:53:05.435Z,11.50
2023-03-02T21:55:40.496Z,11.50
2023-03-02T21:58:17.919Z,11.50
2023-03-02T22:00:53.365Z,11.50
2023-03-02T22:03:31.873Z,11.40
2023-03-02T22:06:07.946Z,11.40
2023-03-02T22:08:43.518Z,11.50
2023-03-02T22:11:29.164Z,11.50
2023-03-02T22:14:07.883Z,11.50
2023-03-02T22:16:46.872Z,11.40
2023-03-02T22:19:32.343Z,11.40
2023-03-02T22:22:07.307Z,11.40
2023-03-02T22:24:45.502Z,11.40
2023-03-02T22:27:29.318Z,11.40
2023-03-02T22:30:07.142Z,11.40
2023-03-02T22:32:43.752Z,11.30
2023-03-02T22:35:27.509Z,11.40
2023-03-02T22:38:07.806Z,11.20
2023-03-02T22:40:44.588Z,11.30
2023-03-02T22:43:32.886Z,11.20
2023-03-02T22:46:17.586Z,11.30
2023-03-02T22:48:54.073Z,11.30
2023-03-02T22:51:34.430Z,11.30
2023-03-02T22:54:18.633Z,11.30
2023-03-02T22:56:55.975Z,11.20
2023-03-02T22:59:33.936Z,11.30
2023-03-02T23:02:19.111Z,11.20
2023-03-02T23:04:55.282Z,11.10
2023-03-02T23:07:32.209Z,11.20
2023-03-02T23:10:07.903Z,11.20
2023-03-02T23:12:43.198Z,11.30
2023-03-02T23:15:24.260Z,11.20
2023-03-02T23:18:02.265Z,11.20
2023-03-02T23:20:40.670Z,11.10
2023-03-02T23:23:18.631Z,11.20
2023-03-02T23:25:54.173Z,11.10
2023-03-02T23:28:30.249Z,11.20
2023-03-02T23:31:05.852Z,11.20
2023-03-02T23:33:41.441Z,11.10
2023-03-02T23:36:19.349Z,11.20
2023-03-02T23:38:57.545Z,11.30
2023-03-02T23:41:33.725Z,11.30
2023-03-02T23:44:10.049Z,11.30
2023-03-02T23:46:46.110Z,11.30
2023-03-02T23:49:23.275Z,11.30
2023-03-02T23:51:58.491Z,11.40
2023-03-02T23:54:36.552Z,11.50
2023-03-02T23:57:12.269Z,11.60
2023-03-02T23:59:48.364Z,11.60
